sensor_id;sensor_type;location;lat;lon;timestamp;pressure;altitude;pressure_sealevel;temperature;humidity
36692;BME280;22678;52.052;4.242;2023-05-27T00:02:13;103069.31;;;13.12;60.69
36692;BME280;22678;52.052;4.242;2023-05-27T00:04:38;103072.81;;;13.11;60.11
36692;BME280;22678;52.052;4.242;2023-05-27T00:07:03;103057.69;;;13.03;60.19
36692;BME280;22678;52.052;4.242;2023-05-27T00:09:29;103075.38;;;13.07;60.47
36692;BME280;22678;52.052;4.242;2023-05-27T00:11:54;103071.88;;;13.08;60.40
36692;BME280;22678;52.052;4.242;2023-05-27T00:14:19;103063.88;;;13.03;60.59
36692;BME280;22678;52.052;4.242;2023-05-27T00:16:47;103065.63;;;13.04;60.72
36692;BME280;22678;52.052;4.242;2023-05-27T00:19:12;103054.03;;;12.93;60.85
36692;BME280;22678;52.052;4.242;2023-05-27T00:21:38;103056.72;;;12.96;60.95
36692;BME280;22678;52.052;4.242;2023-05-27T00:24:03;103057.63;;;12.98;60.83
36692;BME280;22678;52.052;4.242;2023-05-27T00:26:29;103055.75;;;12.92;60.91
36692;BME280;22678;52.052;4.242;2023-05-27T00:28:54;103053.00;;;12.85;60.68
36692;BME280;22678;52.052;4.242;2023-05-27T00:31:19;103065.28;;;12.83;61.36
36692;BME280;22678;52.052;4.242;2023-05-27T00:33:44;103069.69;;;12.84;61.34
36692;BME280;22678;52.052;4.242;2023-05-27T00:36:10;103051.91;;;12.73;61.51
36692;BME280;22678;52.052;4.242;2023-05-27T00:38:35;103054.47;;;12.70;61.52
36692;BME280;22678;52.052;4.242;2023-05-27T00:41:02;103060.50;;;12.63;61.31
36692;BME280;22678;52.052;4.242;2023-05-27T00:43:28;103061.34;;;12.59;61.56
36692;BME280;22678;52.052;4.242;2023-05-27T00:45:56;103062.09;;;12.53;61.63
36692;BME280;22678;52.052;4.242;2023-05-27T00:48:21;103056.88;;;12.56;61.68
36692;BME280;22678;52.052;4.242;2023-05-27T00:50:46;103052.47;;;12.57;61.65
36692;BME280;22678;52.052;4.242;2023-05-27T00:53:12;103038.28;;;12.49;61.58
36692;BME280;22678;52.052;4.242;2023-05-27T00:55:37;103057.66;;;12.51;61.37
36692;BME280;22678;52.052;4.242;2023-05-27T00:58:04;103042.59;;;12.47;61.63
36692;BME280;22678;52.052;4.242;2023-05-27T01:00:31;103046.94;;;12.41;61.62
36692;BME280;22678;52.052;4.242;2023-05-27T01:02:57;103039.81;;;12.37;61.55
36692;BME280;22678;52.052;4.242;2023-05-27T01:05:22;103042.41;;;12.36;61.58
36692;BME280;22678;52.052;4.242;2023-05-27T01:07:50;103045.06;;;12.37;61.44
36692;BME280;22678;52.052;4.242;2023-05-27T01:10:45;103040.59;;;12.33;61.44
36692;BME280;22678;52.052;4.242;2023-05-27T01:13:30;103043.19;;;12.30;61.39
36692;BME280;22678;52.052;4.242;2023-05-27T01:15:59;103038.56;;;12.20;61.41
36692;BME280;22678;52.052;4.242;2023-05-27T01:18:27;103035.03;;;12.18;61.38
36692;BME280;22678;52.052;4.242;2023-05-27T01:21:01;103043.69;;;12.12;61.41
36692;BME280;22678;52.052;4.242;2023-05-27T01:23:27;103029.34;;;11.99;61.67
36692;BME280;22678;52.052;4.242;2023-05-27T01:25:53;103027.59;;;12.00;61.73
36692;BME280;22678;52.052;4.242;2023-05-27T01:28:18;103043.38;;;11.97;61.70
36692;BME280;22678;52.052;4.242;2023-05-27T01:30:44;103037.16;;;11.93;61.67
36692;BME280;22678;52.052;4.242;2023-05-27T01:33:13;103047.59;;;11.90;61.67
36692;BME280;22678;52.052;4.242;2023-05-27T01:35:46;103044.03;;;11.88;61.98
36692;BME280;22678;52.052;4.242;2023-05-27T01:38:16;103039.53;;;11.82;61.96
36692;BME280;22678;52.052;4.242;2023-05-27T01:40:43;103044.69;;;11.78;62.16
36692;BME280;22678;52.052;4.242;2023-05-27T01:43:09;103049.03;;;11.75;61.83
36692;BME280;22678;52.052;4.242;2023-05-27T01:45:36;103041.91;;;11.71;62.21
36692;BME280;22678;52.052;4.242;2023-05-27T01:48:01;103032.13;;;11.66;62.21
36692;BME280;22678;52.052;4.242;2023-05-27T01:50:27;103053.22;;;11.67;62.46
36692;BME280;22678;52.052;4.242;2023-05-27T01:52:54;103046.97;;;11.62;62.43
36692;BME280;22678;52.052;4.242;2023-05-27T01:55:20;103040.81;;;11.60;62.59
36692;BME280;22678;52.052;4.242;2023-05-27T01:57:45;103048.59;;;11.57;62.31
36692;BME280;22678;52.052;4.242;2023-05-27T02:00:11;103045.00;;;11.52;62.75
36692;BME280;22678;52.052;4.242;2023-05-27T02:02:37;103038.75;;;11.48;62.84
36692;BME280;22678;52.052;4.242;2023-05-27T02:05:02;103051.81;;;11.44;62.81
36692;BME280;22678;52.052;4.242;2023-05-27T02:07:28;103046.47;;;11.40;63.01
36692;BME280;22678;52.052;4.242;2023-05-27T02:09:53;103042.97;;;11.40;63.28
36692;BME280;22678;52.052;4.242;2023-05-27T02:12:19;103049.97;;;11.39;63.25
36692;BME280;22678;52.052;4.242;2023-05-27T02:14:45;103044.50;;;11.32;63.19
36692;BME280;22678;52.052;4.242;2023-05-27T02:17:11;103058.66;;;11.35;63.40
36692;BME280;22678;52.052;4.242;2023-05-27T02:19:36;103033.72;;;11.21;63.52
36692;BME280;22678;52.052;4.242;2023-05-27T02:22:01;103027.34;;;11.11;63.67
36692;BME280;22678;52.052;4.242;2023-05-27T02:24:27;103044.19;;;11.18;63.74
36692;BME280;22678;52.052;4.242;2023-05-27T02:26:52;103042.41;;;11.17;63.59
36692;BME280;22678;52.052;4.242;2023-05-27T02:29:18;103044.13;;;11.15;63.92
36692;BME280;22678;52.052;4.242;2023-05-27T02:31:43;103029.84;;;11.07;64.05
36692;BME280;22678;52.052;4.242;2023-05-27T02:34:08;103040.38;;;11.07;64.31
36692;BME280;22678;52.052;4.242;2023-05-27T02:36:34;103043.06;;;11.08;64.39
36692;BME280;22678;52.052;4.242;2023-05-27T02:38:59;103042.09;;;11.04;64.50
36692;BME280;22678;52.052;4.242;2023-05-27T02:41:25;103040.47;;;11.10;64.50
36692;BME280;22678;52.052;4.242;2023-05-27T02:43:51;103047.44;;;11.08;64.44
36692;BME280;22678;52.052;4.242;2023-05-27T02:46:16;103042.09;;;11.04;64.83
36692;BME280;22678;52.052;4.242;2023-05-27T02:48:41;103044.69;;;11.03;64.57
36692;BME280;22678;52.052;4.242;2023-05-27T02:51:07;103043.72;;;10.99;64.65
36692;BME280;22678;52.052;4.242;2023-05-27T02:53:32;103038.38;;;10.96;64.76
36692;BME280;22678;52.052;4.242;2023-05-27T02:55:57;103038.31;;;10.93;65.15
36692;BME280;22678;52.052;4.242;2023-05-27T02:58:23;103026.66;;;10.85;64.98
36692;BME280;22678;52.052;4.242;2023-05-27T03:00:48;103034.75;;;10.91;65.15
36692;BME280;22678;52.052;4.242;2023-05-27T03:03:13;103038.16;;;10.87;65.15
36692;BME280;22678;52.052;4.242;2023-05-27T03:05:39;103039.03;;;10.87;65.08
36692;BME280;22678;52.052;4.242;2023-05-27T03:08:04;103031.94;;;10.85;65.30
36692;BME280;22678;52.052;4.242;2023-05-27T03:10:34;103013.22;;;10.73;65.41
36692;BME280;22678;52.052;4.242;2023-05-27T03:12:59;103018.47;;;10.73;65.56
36692;BME280;22678;52.052;4.242;2023-05-27T03:15:24;103020.19;;;10.71;65.53
36692;BME280;22678;52.052;4.242;2023-05-27T03:17:50;103012.00;;;10.60;65.82
36692;BME280;22678;52.052;4.242;2023-05-27T03:20:17;103029.72;;;10.67;65.67
36692;BME280;22678;52.052;4.242;2023-05-27T03:22:44;103037.66;;;10.68;65.87
36692;BME280;22678;52.052;4.242;2023-05-27T03:25:09;103040.16;;;10.64;66.14
36692;BME280;22678;52.052;4.242;2023-05-27T03:27:34;103035.72;;;10.61;66.07
36692;BME280;22678;52.052;4.242;2023-05-27T03:30:00;103027.63;;;10.54;66.56
36692;BME280;22678;52.052;4.242;2023-05-27T03:32:25;103021.31;;;10.47;66.51
36692;BME280;22678;52.052;4.242;2023-05-27T03:34:51;103025.75;;;10.49;66.75
36692;BME280;22678;52.052;4.242;2023-05-27T03:37:16;103023.06;;;10.48;66.82
36692;BME280;22678;52.052;4.242;2023-05-27T03:39:41;103019.59;;;10.49;66.90
36692;BME280;22678;52.052;4.242;2023-05-27T03:42:07;103026.56;;;10.47;67.11
36692;BME280;22678;52.052;4.242;2023-05-27T03:44:32;103032.75;;;10.49;67.11
36692;BME280;22678;52.052;4.242;2023-05-27T03:46:58;103021.25;;;10.44;67.09
36692;BME280;22678;52.052;4.242;2023-05-27T03:49:23;103021.31;;;10.47;67.16
36692;BME280;22678;52.052;4.242;2023-05-27T03:51:48;103021.31;;;10.47;67.30
36692;BME280;22678;52.052;4.242;2023-05-27T03:54:14;103002.72;;;10.41;67.50
36692;BME280;22678;52.052;4.242;2023-05-27T03:56:39;103001.03;;;10.43;67.41
36692;BME280;22678;52.052;4.242;2023-05-27T03:59:05;102996.50;;;10.37;67.56
36692;BME280;22678;52.052;4.242;2023-05-27T04:01:31;103000.91;;;10.38;67.61
36692;BME280;22678;52.052;4.242;2023-05-27T04:03:57;102992.91;;;10.33;67.63
36692;BME280;22678;52.052;4.242;2023-05-27T04:06:22;103008.91;;;10.43;67.82
36692;BME280;22678;52.052;4.242;2023-05-27T04:08:47;103007.88;;;10.38;67.88
36692;BME280;22678;52.052;4.242;2023-05-27T04:11:13;103015.06;;;10.43;68.14
36692;BME280;22678;52.052;4.242;2023-05-27T04:13:39;103012.38;;;10.42;68.06
36692;BME280;22678;52.052;4.242;2023-05-27T04:16:04;103007.81;;;10.34;68.13
36692;BME280;22678;52.052;4.242;2023-05-27T04:18:30;103000.66;;;10.30;68.22
36692;BME280;22678;52.052;4.242;2023-05-27T04:20:55;103020.19;;;10.39;68.06
36692;BME280;22678;52.052;4.242;2023-05-27T04:23:23;103008.53;;;10.30;68.33
36692;BME280;22678;52.052;4.242;2023-05-27T04:25:48;103012.22;;;10.36;68.32
36692;BME280;22678;52.052;4.242;2023-05-27T04:28:15;103003.19;;;10.27;68.49
36692;BME280;22678;52.052;4.242;2023-05-27T04:30:41;103009.41;;;10.29;68.75
36692;BME280;22678;52.052;4.242;2023-05-27T04:33:06;103010.38;;;10.33;68.80
36692;BME280;22678;52.052;4.242;2023-05-27T04:35:33;103017.50;;;10.36;68.60
36692;BME280;22678;52.052;4.242;2023-05-27T04:37:58;103021.91;;;10.37;68.89
36692;BME280;22678;52.052;4.242;2023-05-27T04:40:26;103020.19;;;10.39;69.14
36692;BME280;22678;52.052;4.242;2023-05-27T04:42:51;103023.72;;;10.39;69.46
36692;BME280;22678;52.052;4.242;2023-05-27T04:45:17;103009.47;;;10.32;69.19
36692;BME280;22678;52.052;4.242;2023-05-27T04:47:42;103017.56;;;10.39;69.31
36692;BME280;22678;52.052;4.242;2023-05-27T04:50:08;103024.69;;;10.43;69.43
36692;BME280;22678;52.052;4.242;2023-05-27T04:52:34;103019.38;;;10.40;69.45
36692;BME280;22678;52.052;4.242;2023-05-27T04:55:08;103018.66;;;10.45;69.59
36692;BME280;22678;52.052;4.242;2023-05-27T04:57:35;103014.09;;;10.40;69.57
36692;BME280;22678;52.052;4.242;2023-05-27T05:00:02;103019.44;;;10.43;69.62
36692;BME280;22678;52.052;4.242;2023-05-27T05:02:28;103012.59;;;10.49;69.56
36692;BME280;22678;52.052;4.242;2023-05-27T05:05:06;103012.50;;;10.46;69.77
36692;BME280;22678;52.052;4.242;2023-05-27T05:07:32;103026.75;;;10.53;69.78
36692;BME280;22678;52.052;4.242;2023-05-27T05:09:58;103015.13;;;10.46;69.91
36692;BME280;22678;52.052;4.242;2023-05-27T05:12:24;103013.53;;;10.51;69.86
36692;BME280;22678;52.052;4.242;2023-05-27T05:14:50;103003.75;;;10.46;70.03
36692;BME280;22678;52.052;4.242;2023-05-27T05:17:16;103016.22;;;10.53;69.92
36692;BME280;22678;52.052;4.242;2023-05-27T05:19:41;103010.28;;;10.60;70.30
36692;BME280;22678;52.052;4.242;2023-05-27T05:22:07;103008.03;;;10.76;70.19
36692;BME280;22678;52.052;4.242;2023-05-27T05:24:32;102992.72;;;10.94;70.27
36692;BME280;22678;52.052;4.242;2023-05-27T05:26:57;103006.53;;;11.22;69.88
36692;BME280;22678;52.052;4.242;2023-05-27T05:29:23;102999.19;;;11.47;69.69
36692;BME280;22678;52.052;4.242;2023-05-27T05:31:48;102986.50;;;11.68;68.97
36692;BME280;22678;52.052;4.242;2023-05-27T05:34:13;102991.28;;;11.88;68.41
36692;BME280;22678;52.052;4.242;2023-05-27T05:36:39;102998.84;;;12.11;67.84
36692;BME280;22678;52.052;4.242;2023-05-27T05:39:04;102976.13;;;12.19;67.39
36692;BME280;22678;52.052;4.242;2023-05-27T05:41:30;102980.84;;;12.35;66.69
36692;BME280;22678;52.052;4.242;2023-05-27T05:43:55;102959.63;;;12.31;66.04
36692;BME280;22678;52.052;4.242;2023-05-27T05:46:21;102982.19;;;12.60;65.94
36692;BME280;22678;52.052;4.242;2023-05-27T05:48:46;102975.47;;;12.79;65.48
36692;BME280;22678;52.052;4.242;2023-05-27T05:51:12;102959.63;;;12.79;64.75
36692;BME280;22678;52.052;4.242;2023-05-27T05:53:38;102968.59;;;12.91;64.75
36692;BME280;22678;52.052;4.242;2023-05-27T05:56:03;102982.03;;;13.05;63.97
36692;BME280;22678;52.052;4.242;2023-05-27T05:58:28;102961.81;;;13.08;63.90
36692;BME280;22678;52.052;4.242;2023-05-27T06:00:54;102964.66;;;13.21;63.67
36692;BME280;22678;52.052;4.242;2023-05-27T06:03:19;102975.38;;;13.31;63.11
36692;BME280;22678;52.052;4.242;2023-05-27T06:05:45;102955.13;;;13.32;62.89
36692;BME280;22678;52.052;4.242;2023-05-27T06:08:10;102952.63;;;13.40;62.73
36692;BME280;22678;52.052;4.242;2023-05-27T06:10:35;102969.56;;;13.56;62.41
36692;BME280;22678;52.052;4.242;2023-05-27T06:13:00;102949.41;;;13.64;62.18
36692;BME280;22678;52.052;4.242;2023-05-27T06:15:26;102946.91;;;13.76;62.04
36692;BME280;22678;52.052;4.242;2023-05-27T06:17:53;102948.78;;;13.83;61.71
36692;BME280;22678;52.052;4.242;2023-05-27T06:20:18;102954.22;;;13.96;61.27
36692;BME280;22678;52.052;4.242;2023-05-27T06:22:44;102941.84;;;13.93;60.99
36692;BME280;22678;52.052;4.242;2023-05-27T06:25:12;102935.56;;;13.85;60.31
36692;BME280;22678;52.052;4.242;2023-05-27T06:27:37;102941.78;;;13.87;60.80
36692;BME280;22678;52.052;4.242;2023-05-27T06:30:03;102928.53;;;13.84;60.34
36692;BME280;22678;52.052;4.242;2023-05-27T06:32:28;102934.78;;;13.95;60.71
36692;BME280;22678;52.052;4.242;2023-05-27T06:34:53;102937.66;;;14.15;60.85
36692;BME280;22678;52.052;4.242;2023-05-27T06:37:19;102928.09;;;14.27;60.37
36692;BME280;22678;52.052;4.242;2023-05-27T06:39:44;102928.16;;;14.33;60.10
36692;BME280;22678;52.052;4.242;2023-05-27T06:42:09;102922.91;;;14.39;59.61
36692;BME280;22678;52.052;4.242;2023-05-27T06:44:35;102923.84;;;14.44;59.53
36692;BME280;22678;52.052;4.242;2023-05-27T06:47:00;102927.47;;;14.57;59.47
36692;BME280;22678;52.052;4.242;2023-05-27T06:49:27;102922.31;;;14.68;59.01
36692;BME280;22678;52.052;4.242;2023-05-27T06:51:52;102932.94;;;14.73;59.13
36692;BME280;22678;52.052;4.242;2023-05-27T06:54:17;102918.00;;;14.85;58.91
36692;BME280;22678;52.052;4.242;2023-05-27T06:56:43;102929.56;;;14.95;57.80
36692;BME280;22678;52.052;4.242;2023-05-27T06:59:08;102930.47;;;14.99;57.91
36692;BME280;22678;52.052;4.242;2023-05-27T07:01:33;102928.78;;;15.16;57.99
36692;BME280;22678;52.052;4.242;2023-05-27T07:03:59;102915.53;;;15.12;57.28
36692;BME280;22678;52.052;4.242;2023-05-27T07:06:24;102919.09;;;15.18;57.35
36692;BME280;22678;52.052;4.242;2023-05-27T07:08:49;102924.47;;;15.34;57.07
36692;BME280;22678;52.052;4.242;2023-05-27T07:11:15;102923.63;;;15.41;56.92
36692;BME280;22678;52.052;4.242;2023-05-27T07:13:41;102926.28;;;15.44;56.95
36692;BME280;22678;52.052;4.242;2023-05-27T07:16:06;102909.53;;;15.51;56.51
36692;BME280;22678;52.052;4.242;2023-05-27T07:18:32;102907.81;;;15.56;56.33
36692;BME280;22678;52.052;4.242;2023-05-27T07:20:57;102909.63;;;15.67;56.32
36692;BME280;22678;52.052;4.242;2023-05-27T07:23:22;102908.75;;;15.71;55.99
36692;BME280;22678;52.052;4.242;2023-05-27T07:25:47;102899.91;;;15.75;56.04
36692;BME280;22678;52.052;4.242;2023-05-27T07:28:13;102900.84;;;15.79;55.71
36692;BME280;22678;52.052;4.242;2023-05-27T07:30:38;102894.69;;;15.84;55.72
36692;BME280;22678;52.052;4.242;2023-05-27T07:33:03;102907.97;;;16.03;55.66
36692;BME280;22678;52.052;4.242;2023-05-27T07:35:29;102896.47;;;16.08;55.16
36692;BME280;22678;52.052;4.242;2023-05-27T07:37:54;102912.41;;;16.15;54.74
36692;BME280;22678;52.052;4.242;2023-05-27T07:40:19;102915.06;;;16.11;54.22
36692;BME280;22678;52.052;4.242;2023-05-27T07:42:45;102894.69;;;16.06;54.33
36692;BME280;22678;52.052;4.242;2023-05-27T07:45:10;102896.47;;;16.07;53.89
36692;BME280;22678;52.052;4.242;2023-05-27T07:47:35;102885.00;;;16.11;54.17
36692;BME280;22678;52.052;4.242;2023-05-27T07:50:01;102899.16;;;16.28;54.62
36692;BME280;22678;52.052;4.242;2023-05-27T07:52:26;102894.75;;;16.48;54.57
36692;BME280;22678;52.052;4.242;2023-05-27T07:54:51;102885.00;;;16.71;54.57
36692;BME280;22678;52.052;4.242;2023-05-27T07:57:17;102892.06;;;16.95;54.03
36692;BME280;22678;52.052;4.242;2023-05-27T07:59:42;102888.50;;;17.06;52.85
36692;BME280;22678;52.052;4.242;2023-05-27T08:02:08;102891.13;;;17.10;52.87
36692;BME280;22678;52.052;4.242;2023-05-27T08:04:34;102884.06;;;17.12;52.46
36692;BME280;22678;52.052;4.242;2023-05-27T08:06:59;102886.66;;;17.26;52.17
36692;BME280;22678;52.052;4.242;2023-05-27T08:09:25;102862.66;;;17.37;51.98
36692;BME280;22678;52.052;4.242;2023-05-27T08:11:50;102875.03;;;17.47;51.31
36692;BME280;22678;52.052;4.242;2023-05-27T08:14:15;102882.97;;;17.58;51.22
36692;BME280;22678;52.052;4.242;2023-05-27T08:16:41;102869.69;;;17.58;51.29
36692;BME280;22678;52.052;4.242;2023-05-27T08:19:06;102875.78;;;17.76;51.12
36692;BME280;22678;52.052;4.242;2023-05-27T08:21:32;102868.66;;;17.81;50.61
36692;BME280;22678;52.052;4.242;2023-05-27T08:23:57;102861.50;;;17.89;50.50
36692;BME280;22678;52.052;4.242;2023-05-27T08:26:23;102872.16;;;17.89;50.48
36692;BME280;22678;52.052;4.242;2023-05-27T08:28:48;102868.63;;;17.93;50.57
36692;BME280;22678;52.052;4.242;2023-05-27T08:31:14;102863.25;;;17.99;50.51
36692;BME280;22678;52.052;4.242;2023-05-27T08:33:39;102854.22;;;18.20;50.54
36692;BME280;22678;52.052;4.242;2023-05-27T08:36:05;102834.59;;;18.29;50.11
36692;BME280;22678;52.052;4.242;2023-05-27T08:38:31;102850.44;;;18.48;48.90
36692;BME280;22678;52.052;4.242;2023-05-27T08:40:56;102827.28;;;18.53;49.13
36692;BME280;22678;52.052;4.242;2023-05-27T08:43:23;102832.38;;;18.76;49.06
36692;BME280;22678;52.052;4.242;2023-05-27T08:45:49;102827.75;;;18.95;48.54
36692;BME280;22678;52.052;4.242;2023-05-27T08:48:15;102829.34;;;19.12;48.41
36692;BME280;22678;52.052;4.242;2023-05-27T08:50:40;102815.88;;;19.21;47.01
36692;BME280;22678;52.052;4.242;2023-05-27T08:53:06;102825.44;;;19.37;46.90
36692;BME280;22678;52.052;4.242;2023-05-27T08:55:34;102812.91;;;19.44;45.84
36692;BME280;22678;52.052;4.242;2023-05-27T08:58:01;102812.06;;;19.40;44.86
36692;BME280;22678;52.052;4.242;2023-05-27T09:00:27;102812.06;;;19.40;45.47
36692;BME280;22678;52.052;4.242;2023-05-27T09:02:52;102806.59;;;19.50;45.38
36692;BME280;22678;52.052;4.242;2023-05-27T09:05:21;102790.63;;;19.47;45.87
36692;BME280;22678;52.052;4.242;2023-05-27T09:07:47;102787.63;;;19.68;45.86
36692;BME280;22678;52.052;4.242;2023-05-27T09:10:13;102789.22;;;19.85;46.09
36692;BME280;22678;52.052;4.242;2023-05-27T09:12:42;102794.22;;;20.03;45.81
36692;BME280;22678;52.052;4.242;2023-05-27T09:15:08;102796.72;;;20.12;44.99
36692;BME280;22678;52.052;4.242;2023-05-27T09:17:40;102779.81;;;20.12;43.63
36692;BME280;22678;52.052;4.242;2023-05-27T09:20:05;102783.38;;;20.14;43.79
36692;BME280;22678;52.052;4.242;2023-05-27T09:22:33;102777.88;;;20.23;43.30
36692;BME280;22678;52.052;4.242;2023-05-27T09:24:59;102771.53;;;20.29;43.11
36692;BME280;22678;52.052;4.242;2023-05-27T09:27:29;102773.19;;;20.36;42.48
36692;BME280;22678;52.052;4.242;2023-05-27T09:29:56;102778.47;;;20.39;42.14
36692;BME280;22678;52.052;4.242;2023-05-27T09:32:30;102781.72;;;20.54;42.02
36692;BME280;22678;52.052;4.242;2023-05-27T09:34:57;102769.91;;;20.65;41.90
36692;BME280;22678;52.052;4.242;2023-05-27T09:37:29;102766.19;;;20.77;41.36
36692;BME280;22678;52.052;4.242;2023-05-27T09:39:59;102777.44;;;20.92;41.40
36692;BME280;22678;52.052;4.242;2023-05-27T09:44:49;102757.38;;;21.14;41.25
36692;BME280;22678;52.052;4.242;2023-05-27T09:47:16;102776.44;;;21.38;41.05
36692;BME280;22678;52.052;4.242;2023-05-27T09:49:45;102763.81;;;21.43;40.32
36692;BME280;22678;52.052;4.242;2023-05-27T09:52:11;102767.22;;;21.53;39.85
36692;BME280;22678;52.052;4.242;2023-05-27T09:54:37;102769.88;;;21.53;39.45
36692;BME280;22678;52.052;4.242;2023-05-27T09:57:06;102768.56;;;21.71;39.65
36692;BME280;22678;52.052;4.242;2023-05-27T09:59:32;102759.63;;;21.72;40.12
36692;BME280;22678;52.052;4.242;2023-05-27T10:01:59;102769.81;;;21.94;40.07
36692;BME280;22678;52.052;4.242;2023-05-27T10:04:25;102760.44;;;22.10;39.64
36692;BME280;22678;52.052;4.242;2023-05-27T10:06:51;102763.56;;;22.28;39.03
36692;BME280;22678;52.052;4.242;2023-05-27T10:09:17;102757.38;;;22.24;38.01
36692;BME280;22678;52.052;4.242;2023-05-27T10:11:43;102744.09;;;22.19;37.94
36692;BME280;22678;52.052;4.242;2023-05-27T10:14:09;102760.00;;;22.26;38.28
36692;BME280;22678;52.052;4.242;2023-05-27T10:16:37;102749.97;;;22.35;38.55
36692;BME280;22678;52.052;4.242;2023-05-27T10:19:02;102741.44;;;22.52;38.21
36692;BME280;22678;52.052;4.242;2023-05-27T10:21:29;102739.34;;;22.64;38.15
36692;BME280;22678;52.052;4.242;2023-05-27T10:24:01;102720.53;;;22.65;38.28
36692;BME280;22678;52.052;4.242;2023-05-27T10:26:39;102730.75;;;22.82;38.27
36692;BME280;22678;52.052;4.242;2023-05-27T10:31:31;102730.38;;;22.95;37.68
36692;BME280;22678;52.052;4.242;2023-05-27T10:33:57;102716.97;;;22.95;37.35
36692;BME280;22678;52.052;4.242;2023-05-27T10:36:25;102718.78;;;22.94;37.64
36692;BME280;22678;52.052;4.242;2023-05-27T10:39:03;102720.31;;;23.03;37.33
36692;BME280;22678;52.052;4.242;2023-05-27T10:44:06;102714.75;;;23.09;37.36
36692;BME280;22678;52.052;4.242;2023-05-27T10:46:39;102705.59;;;23.16;37.32
36692;BME280;22678;52.052;4.242;2023-05-27T10:49:16;102686.78;;;23.18;37.00
36692;BME280;22678;52.052;4.242;2023-05-27T10:51:48;102686.63;;;23.22;36.86
36692;BME280;22678;52.052;4.242;2023-05-27T10:54:14;102689.63;;;23.40;36.41
36692;BME280;22678;52.052;4.242;2023-05-27T10:56:52;102681.56;;;23.40;36.39
36692;BME280;22678;52.052;4.242;2023-05-27T10:59:21;102690.97;;;23.53;36.29
36692;BME280;22678;52.052;4.242;2023-05-27T11:01:51;102671.00;;;23.62;35.88
36692;BME280;22678;52.052;4.242;2023-05-27T11:04:18;102675.69;;;23.80;35.75
36692;BME280;22678;52.052;4.242;2023-05-27T11:06:56;102675.28;;;23.94;35.67
36692;BME280;22678;52.052;4.242;2023-05-27T11:09:23;102664.84;;;24.10;35.59
36692;BME280;22678;52.052;4.242;2023-05-27T11:11:49;102670.91;;;24.16;35.25
36692;BME280;22678;52.052;4.242;2023-05-27T11:14:14;102663.94;;;24.10;34.23
36692;BME280;22678;52.052;4.242;2023-05-27T11:16:40;102657.81;;;24.06;33.92
36692;BME280;22678;52.052;4.242;2023-05-27T11:19:05;102653.25;;;24.08;34.51
36692;BME280;22678;52.052;4.242;2023-05-27T11:21:30;102645.69;;;24.20;35.31
36692;BME280;22678;52.052;4.242;2023-05-27T11:23:55;102610.81;;;24.18;36.43
36692;BME280;22678;52.052;4.242;2023-05-27T11:26:23;102648.78;;;24.56;36.79
36692;BME280;22678;52.052;4.242;2023-05-27T11:28:58;102645.03;;;24.62;37.27
36692;BME280;22678;52.052;4.242;2023-05-27T11:31:30;102638.41;;;24.71;37.74
36692;BME280;22678;52.052;4.242;2023-05-27T11:33:58;102633.31;;;24.85;37.99
36692;BME280;22678;52.052;4.242;2023-05-27T11:36:27;102624.13;;;24.91;38.18
36692;BME280;22678;52.052;4.242;2023-05-27T11:41:23;102609.66;;;25.15;38.13
36692;BME280;22678;52.052;4.242;2023-05-27T11:43:54;102615.00;;;25.17;37.85
36692;BME280;22678;52.052;4.242;2023-05-27T11:46:20;102601.66;;;25.14;37.89
36692;BME280;22678;52.052;4.242;2023-05-27T11:48:46;102608.53;;;25.21;38.36
36692;BME280;22678;52.052;4.242;2023-05-27T11:51:11;102608.19;;;25.30;38.15
36692;BME280;22678;52.052;4.242;2023-05-27T11:53:46;102600.09;;;25.30;37.62
36692;BME280;22678;52.052;4.242;2023-05-27T11:56:12;102610.53;;;25.38;37.69
36692;BME280;22678;52.052;4.242;2023-05-27T11:58:38;102598.91;;;25.38;37.52
36692;BME280;22678;52.052;4.242;2023-05-27T12:01:03;102588.88;;;25.41;37.09
36692;BME280;22678;52.052;4.242;2023-05-27T12:03:29;102592.38;;;25.43;38.00
36692;BME280;22678;52.052;4.242;2023-05-27T12:05:54;102582.34;;;25.47;37.69
36692;BME280;22678;52.052;4.242;2023-05-27T12:08:20;102580.19;;;25.55;37.71
36692;BME280;22678;52.052;4.242;2023-05-27T12:10:45;102583.44;;;25.63;37.53
36692;BME280;22678;52.052;4.242;2023-05-27T12:13:15;102581.31;;;25.70;37.75
36692;BME280;22678;52.052;4.242;2023-05-27T12:15:40;102574.09;;;25.70;37.05
36692;BME280;22678;52.052;4.242;2023-05-27T12:18:05;102572.09;;;25.76;37.31
36692;BME280;22678;52.052;4.242;2023-05-27T12:20:31;102563.81;;;25.80;36.66
36692;BME280;22678;52.052;4.242;2023-05-27T12:22:56;102564.25;;;25.90;36.92
36692;BME280;22678;52.052;4.242;2023-05-27T12:25:22;102564.66;;;26.01;37.09
36692;BME280;22678;52.052;4.242;2023-05-27T12:27:47;102557.25;;;26.07;36.62
36692;BME280;22678;52.052;4.242;2023-05-27T12:30:12;102554.47;;;26.08;36.32
36692;BME280;22678;52.052;4.242;2023-05-27T12:32:39;102553.63;;;26.08;36.33
36692;BME280;22678;52.052;4.242;2023-05-27T12:35:05;102558.25;;;26.04;36.26
36692;BME280;22678;52.052;4.242;2023-05-27T12:37:30;102543.75;;;26.07;36.53
36692;BME280;22678;52.052;4.242;2023-05-27T12:39:55;102546.69;;;26.21;36.32
36692;BME280;22678;52.052;4.242;2023-05-27T12:42:21;102545.66;;;26.23;36.20
36692;BME280;22678;52.052;4.242;2023-05-27T12:44:47;102534.81;;;26.25;35.54
36692;BME280;22678;52.052;4.242;2023-05-27T12:47:13;102537.06;;;26.15;35.66
36692;BME280;22678;52.052;4.242;2023-05-27T12:49:38;102526.44;;;26.12;35.94
36692;BME280;22678;52.052;4.242;2023-05-27T12:52:03;102542.91;;;26.25;36.19
36692;BME280;22678;52.052;4.242;2023-05-27T12:54:29;102545.59;;;26.25;35.75
36692;BME280;22678;52.052;4.242;2023-05-27T12:56:55;102541.38;;;26.19;35.66